createdAt,value
2022-10-09T00:01:19.290Z,8.84
2022-10-09T00:04:21.353Z,8.22
2022-10-09T00:07:23.402Z,8.23
2022-10-09T00:10:25.472Z,8.27
2022-10-09T00:13:27.558Z,8.28
2022-10-09T00:16:29.817Z,8.12
2022-10-09T00:19:31.940Z,8.36
2022-10-09T00:22:34.112Z,8.14
2022-10-09T00:25:36.464Z,8.15
2022-10-09T00:28:39.087Z,8.45
2022-10-09T00:31:41.233Z,8.37
2022-10-09T00:34:43.348Z,8.66
2022-10-09T00:37:45.430Z,8.51
2022-10-09T00:40:47.469Z,8.45
2022-10-09T00:43:51.577Z,8.60
2022-10-09T00:46:53.646Z,8.49
2022-10-09T00:50:23.434Z,8.58
2022-10-09T00:53:26.967Z,8.48
2022-10-09T00:56:29.030Z,8.41
2022-10-09T00:59:31.579Z,8.36
2022-10-09T01:02:33.743Z,8.22
2022-10-09T01:05:54.086Z,8.27
2022-10-09T01:09:01.730Z,8.13
2022-10-09T01:12:41.017Z,8.02
2022-10-09T01:15:56.878Z,8.01
2022-10-09T01:19:25.320Z,8.02
2022-10-09T01:22:42.230Z,7.51
2022-10-09T01:26:40.227Z,7.52
2022-10-09T01:29:48.878Z,7.25
2022-10-09T01:32:52.025Z,7.20
2022-10-09T01:35:54.431Z,7.26
2022-10-09T01:38:58.946Z,7.11
2022-10-09T01:42:01.000Z,7.21
2022-10-09T01:45:03.075Z,7.36
2022-10-09T01:48:05.187Z,7.35
2022-10-09T01:51:07.237Z,7.59
2022-10-09T01:54:09.360Z,7.49
2022-10-09T01:57:12.159Z,7.40
2022-10-09T02:00:14.342Z,7.49
2022-10-09T02:03:16.630Z,7.66
2022-10-09T02:06:19.232Z,7.55
2022-10-09T02:09:21.291Z,7.77
2022-10-09T02:12:23.559Z,7.78
2022-10-09T02:15:35.191Z,7.77
2022-10-09T02:18:47.803Z,7.91
2022-10-09T02:22:06.088Z,7.81
2022-10-09T02:25:08.158Z,7.77
2022-10-09T02:28:10.277Z,7.60
2022-10-09T02:31:26.441Z,7.61
2022-10-09T02:34:28.573Z,7.55
2022-10-09T02:37:31.006Z,7.34
2022-10-09T02:40:33.069Z,7.40
2022-10-09T02:43:35.097Z,7.22
2022-10-09T02:46:38.551Z,7.13
2022-10-09T02:49:40.829Z,7.07
2022-10-09T02:52:42.864Z,6.99
2022-10-09T02:55:44.922Z,6.96
2022-10-09T02:58:46.965Z,6.96
2022-10-09T03:01:49.663Z,7.02
2022-10-09T03:04:51.882Z,7.18
2022-10-09T03:07:53.910Z,7.15
2022-10-09T03:10:56.043Z,7.14
2022-10-09T03:13:58.089Z,6.88
2022-10-09T03:17:00.203Z,7.17
2022-10-09T03:20:02.294Z,7.16
2022-10-09T03:23:04.426Z,6.91
2022-10-09T03:26:09.238Z,7.01
2022-10-09T03:29:11.291Z,7.09
2022-10-09T03:32:13.538Z,7.14
2022-10-09T03:35:15.673Z,7.07
2022-10-09T03:38:17.738Z,6.95
2022-10-09T03:41:19.804Z,7.10
2022-10-09T03:44:21.838Z,7.20
2022-10-09T03:47:23.903Z,7.08
2022-10-09T03:50:25.938Z,7.20
2022-10-09T03:53:28.008Z,7.15
2022-10-09T03:56:30.124Z,7.31
2022-10-09T03:59:32.142Z,7.22
2022-10-09T04:02:34.494Z,7.29
2022-10-09T04:05:36.776Z,7.31
2022-10-09T04:08:38.815Z,7.34
2022-10-09T04:11:40.878Z,7.28
2022-10-09T04:14:42.944Z,7.23
2022-10-09T04:17:45.041Z,7.32
2022-10-09T04:20:55.103Z,7.18
2022-10-09T04:23:57.145Z,6.56
2022-10-09T04:26:59.383Z,6.73
2022-10-09T04:30:01.767Z,6.90
2022-10-09T04:33:04.986Z,6.56
2022-10-09T04:36:09.156Z,6.43
2022-10-09T04:39:11.220Z,6.37
2022-10-09T04:42:13.275Z,6.47
2022-10-09T04:45:15.376Z,6.54
2022-10-09T04:48:17.418Z,6.57
2022-10-09T04:51:19.498Z,6.57
2022-10-09T04:54:21.548Z,6.72
2022-10-09T04:57:23.602Z,6.81
2022-10-09T05:00:25.809Z,6.96
2022-10-09T05:03:27.878Z,7.32
2022-10-09T05:06:29.976Z,7.49
2022-10-09T05:09:32.028Z,7.78
2022-10-09T05:12:34.095Z,7.57
2022-10-09T05:15:39.042Z,7.90
2022-10-09T05:18:54.129Z,7.75
2022-10-09T05:21:56.183Z,7.78
2022-10-09T05:24:58.228Z,7.80
2022-10-09T05:28:00.419Z,7.90
2022-10-09T05:31:09.564Z,7.82
2022-10-09T05:34:11.659Z,7.76
2022-10-09T05:37:13.736Z,7.63
2022-10-09T05:40:15.896Z,7.98
2022-10-09T05:43:18.105Z,8.54
2022-10-09T05:46:24.739Z,8.02
2022-10-09T05:49:26.827Z,7.73
2022-10-09T05:52:29.330Z,7.42
2022-10-09T05:55:31.422Z,7.19
2022-10-09T05:58:33.467Z,7.43
2022-10-09T06:01:42.210Z,7.18
2022-10-09T06:04:44.342Z,7.34
2022-10-09T06:07:47.019Z,6.95
2022-10-09T06:10:49.063Z,7.07
2022-10-09T06:13:51.495Z,7.20
2022-10-09T06:16:58.978Z,7.34
2022-10-09T06:20:01.073Z,7.35
2022-10-09T06:23:03.127Z,7.43
2022-10-09T06:26:14.237Z,7.21
2022-10-09T06:29:16.346Z,7.17
2022-10-09T06:32:18.423Z,7.10
2022-10-09T06:35:20.459Z,7.25
2022-10-09T06:38:22.617Z,7.19
2022-10-09T06:41:26.178Z,7.17
2022-10-09T06:44:28.252Z,7.14
2022-10-09T06:47:31.058Z,6.95
2022-10-09T06:50:36.862Z,6.84
2022-10-09T06:53:44.450Z,6.89
2022-10-09T06:56:46.563Z,6.82
2022-10-09T06:59:50.170Z,6.77
2022-10-09T07:02:53.010Z,6.80
2022-10-09T07:06:04.823Z,7.00
2022-10-09T07:09:09.374Z,6.91
2022-10-09T07:12:11.435Z,6.94
2022-10-09T07:15:13.480Z,6.99
2022-10-09T07:18:16.193Z,7.09
2022-10-09T07:21:18.324Z,7.13
2022-10-09T07:24:21.243Z,7.12
2022-10-09T07:27:23.288Z,7.37
2022-10-09T07:30:25.391Z,7.52
2022-10-09T07:33:27.454Z,7.51
2022-10-09T07:36:29.567Z,7.51
2022-10-09T07:39:31.635Z,7.40
2022-10-09T07:42:33.681Z,7.59
2022-10-09T07:45:35.811Z,7.49
2022-10-09T07:48:37.887Z,7.55
2022-10-09T07:51:40.008Z,7.66
2022-10-09T07:54:42.125Z,7.80
2022-10-09T07:57:44.162Z,8.03
2022-10-09T08:00:46.209Z,8.18
2022-10-09T08:03:48.881Z,8.14
2022-10-09T08:06:50.947Z,8.19
2022-10-09T08:09:52.994Z,8.42
2022-10-09T08:12:55.039Z,8.61
2022-10-09T08:15:58.924Z,8.89
2022-10-09T08:19:01.414Z,8.72
2022-10-09T08:22:03.809Z,9.05
2022-10-09T08:25:06.558Z,9.42
2022-10-09T08:28:09.464Z,9.40
2022-10-09T08:31:13.200Z,9.48
2022-10-09T08:34:15.715Z,9.81
2022-10-09T08:37:17.839Z,9.73
2022-10-09T08:40:35.318Z,10.02
2022-10-09T08:43:41.516Z,9.99
2022-10-09T08:47:13.389Z,9.75
2022-10-09T08:50:43.591Z,10.52
2022-10-09T08:54:00.018Z,10.39
2022-10-09T08:57:04.555Z,10.74
2022-10-09T09:00:18.033Z,10.62
2022-10-09T09:03:27.291Z,10.58
2022-10-09T09:06:58.273Z,10.92
2022-10-09T09:10:24.956Z,11.06
2022-10-09T09:14:11.019Z,10.96
2022-10-09T09:17:19.663Z,10.91
2022-10-09T09:20:57.640Z,11.01
2022-10-09T09:24:00.130Z,10.84
2022-10-09T09:27:06.541Z,10.56
2022-10-09T09:30:21.421Z,11.37
2022-10-09T09:33:45.817Z,11.81
2022-10-09T09:36:55.904Z,11.68
2022-10-09T09:43:25.375Z,11.60
2022-10-09T09:46:30.216Z,11.59
2022-10-09T09:49:32.436Z,12.37
2022-10-09T09:52:40.563Z,12.14
2022-10-09T09:55:42.641Z,12.40
2022-10-09T09:58:53.116Z,13.18
2022-10-09T10:02:15.594Z,12.64
2022-10-09T10:05:27.407Z,12.91
2022-10-09T10:08:34.116Z,12.85
2022-10-09T10:11:36.186Z,12.61
2022-10-09T10:14:38.257Z,12.46
2022-10-09T10:17:40.354Z,12.69
2022-10-09T10:20:52.132Z,12.29
2022-10-09T10:27:35.538Z,13.46
2022-10-09T10:30:37.823Z,13.37
2022-10-09T10:33:40.574Z,13.47
2022-10-09T10:36:42.629Z,13.36
2022-10-09T10:39:57.406Z,14.01
2022-10-09T10:43:15.968Z,14.03
2022-10-09T10:46:28.546Z,14.06
2022-10-09T10:49:33.816Z,13.80
2022-10-09T10:53:21.223Z,14.36
2022-10-09T10:56:30.071Z,14.48
2022-10-09T11:00:06.692Z,14.61
2022-10-09T11:03:42.375Z,15.08
2022-10-09T11:07:13.643Z,15.07
2022-10-09T11:10:35.879Z,14.79
2022-10-09T11:14:28.898Z,14.80
2022-10-09T11:18:12.818Z,14.76
2022-10-09T11:21:59.679Z,14.62
2022-10-09T11:25:30.748Z,14.84
2022-10-09T11:28:53.640Z,15.28
2022-10-09T11:32:22.737Z,14.72
2022-10-09T11:35:28.603Z,15.12
2022-10-09T11:39:01.919Z,14.90
2022-10-09T11:42:04.652Z,15.17
2022-10-09T11:46:01.386Z,14.56
2022-10-09T11:49:13.666Z,13.90
2022-10-09T11:52:32.761Z,14.37
2022-10-09T11:55:35.031Z,14.28
2022-10-09T11:58:37.117Z,13.99
2022-10-09T12:01:47.517Z,14.19
2022-10-09T12:04:54.870Z,14.37
2022-10-09T12:08:19.890Z,13.87
2022-10-09T12:11:22.123Z,14.29
2022-10-09T12:14:25.772Z,14.08
2022-10-09T12:17:27.789Z,14.33
2022-10-09T12:20:30.002Z,14.05
2022-10-09T12:23:36.051Z,14.25
2022-10-09T12:26:38.224Z,14.38
2022-10-09T12:29:48.490Z,13.86
2022-10-09T12:33:04.843Z,14.08
2022-10-09T12:36:23.469Z,14.28
2022-10-09T12:39:25.579Z,14.09
2022-10-09T12:42:27.692Z,13.83
2022-10-09T12:45:30.781Z,13.64
2022-10-09T12:48:38.805Z,14.07
2022-10-09T12:51:40.854Z,14.06
2022-10-09T12:54:44.442Z,14.09
2022-10-09T12:57:46.578Z,13.88
2022-10-09T13:00:53.809Z,14.32
2022-10-09T13:04:03.474Z,14.28
2022-10-09T13:07:21.110Z,13.75
2022-10-09T13:10:23.379Z,14.09
2022-10-09T13:13:26.808Z,14.36
2022-10-09T13:16:44.249Z,14.64
2022-10-09T13:19:54.928Z,14.61
2022-10-09T13:23:02.723Z,14.10
2022-10-09T13:26:05.809Z,14.25
2022-10-09T13:29:07.939Z,14.39
2022-10-09T13:32:14.537Z,14.87
2022-10-09T13:35:17.291Z,14.81
2022-10-09T13:38:20.325Z,14.57
2022-10-09T13:41:23.790Z,14.25
2022-10-09T13:44:26.048Z,14.28
2022-10-09T13:47:28.129Z,14.25
2022-10-09T13:50:30.281Z,14.01
2022-10-09T13:53:32.730Z,14.09
2022-10-09T13:56:34.879Z,14.25
2022-10-09T13:59:37.988Z,14.26
2022-10-09T14:02:40.164Z,14.03
2022-10-09T14:05:43.343Z,14.24
2022-10-09T14:08:45.517Z,14.35
2022-10-09T14:11:47.671Z,14.31
2022-10-09T14:14:49.782Z,14.23
2022-10-09T14:17:52.141Z,14.31
2022-10-09T14:20:54.385Z,14.22
2022-10-09T14:23:58.273Z,14.36
2022-10-09T14:27:00.339Z,14.56
2022-10-09T14:30:02.571Z,14.44
2022-10-09T14:33:04.683Z,14.43
2022-10-09T14:36:15.014Z,14.36
2022-10-09T14:39:17.157Z,14.47
2022-10-09T14:42:19.241Z,14.57
2022-10-09T14:45:21.351Z,14.57
2022-10-09T14:48:23.485Z,14.12
2022-10-09T14:51:26.926Z,14.16
2022-10-09T14:54:29.089Z,14.63
2022-10-09T14:57:35.192Z,14.49
2022-10-09T15:00:37.863Z,14.55
2022-10-09T15:03:40.023Z,14.26
2022-10-09T15:06:47.140Z,14.62
2022-10-09T15:09:49.241Z,14.31
2022-10-09T15:12:51.347Z,14.46
2022-10-09T15:16:02.391Z,14.72
2022-10-09T15:19:05.759Z,14.66
2022-10-09T15:22:07.834Z,14.37
2022-10-09T15:25:10.298Z,14.11
2022-10-09T15:28:13.507Z,14.16
2022-10-09T15:31:28.472Z,14.35
2022-10-09T15:34:30.895Z,14.30
2022-10-09T15:37:33.016Z,14.15
2022-10-09T15:40:48.003Z,14.17
2022-10-09T15:43:51.103Z,14.32
2022-10-09T15:46:53.166Z,14.74
2022-10-09T15:49:55.202Z,17.10
2022-10-09T15:52:59.336Z,16.00
2022-10-09T15:56:05.530Z,17.76
2022-10-09T15:59:09.319Z,16.54
2022-10-09T16:02:11.996Z,17.45
2022-10-09T16:05:14.194Z,18.55
2022-10-09T16:08:17.248Z,18.98
2022-10-09T16:11:21.876Z,15.74
2022-10-09T16:14:31.071Z,14.82
2022-10-09T16:17:33.139Z,15.05
2022-10-09T16:20:36.515Z,14.87
2022-10-09T16:23:38.721Z,14.65
2022-10-09T16:26:40.762Z,14.41
2022-10-09T16:29:43.170Z,14.49
2022-10-09T16:32:46.972Z,14.23
2022-10-09T16:35:49.355Z,14.24
2022-10-09T16:38:51.437Z,14.21
2022-10-09T16:41:53.769Z,14.22
2022-10-09T16:44:55.856Z,14.13
2022-10-09T16:48:00.997Z,14.17
2022-10-09T16:51:07.362Z,14.00
2022-10-09T16:54:10.145Z,14.00
2022-10-09T16:57:12.212Z,13.81
2022-10-09T17:00:19.103Z,13.84
2022-10-09T17:03:21.471Z,13.80
2022-10-09T17:06:23.901Z,13.93
2022-10-09T17:09:26.015Z,13.65
2022-10-09T17:12:28.084Z,13.87
2022-10-09T17:15:30.993Z,13.75
2022-10-09T17:18:33.146Z,13.61
2022-10-09T17:21:35.587Z,13.62
2022-10-09T17:24:37.730Z,13.63
2022-10-09T17:27:39.812Z,13.53
2022-10-09T17:30:41.862Z,13.53
2022-10-09T17:33:46.075Z,13.46
2022-10-09T17:36:48.379Z,13.32
2022-10-09T17:39:52.370Z,13.38
2022-10-09T17:42:54.664Z,13.48
2022-10-09T17:45:56.816Z,13.37
2022-10-09T17:48:59.593Z,13.40
2022-10-09T17:52:01.683Z,13.58
2022-10-09T17:55:03.932Z,13.48
2022-10-09T17:58:06.010Z,13.19
2022-10-09T18:01:08.723Z,13.23
2022-10-09T18:04:20.053Z,13.53
2022-10-09T18:07:27.161Z,13.32
2022-10-09T18:10:29.226Z,13.22
2022-10-09T18:13:31.558Z,13.26
2022-10-09T18:16:36.888Z,13.31
2022-10-09T18:19:39.068Z,13.42
2022-10-09T18:22:41.141Z,13.34
2022-10-09T18:25:44.207Z,13.34
2022-10-09T18:28:48.460Z,13.16
2022-10-09T18:31:55.457Z,13.45
2022-10-09T18:35:00.103Z,13.16
2022-10-09T18:38:02.512Z,13.31
2022-10-09T18:41:06.115Z,13.11
2022-10-09T18:44:12.943Z,13.20
2022-10-09T18:47:16.927Z,13.17
2022-10-09T18:50:19.023Z,13.46
2022-10-09T18:53:21.298Z,13.21
2022-10-09T18:56:23.467Z,13.23
2022-10-09T18:59:25.534Z,13.43
2022-10-09T19:02:27.813Z,13.31
2022-10-09T19:05:29.902Z,13.40
2022-10-09T19:08:32.066Z,13.20
2022-10-09T19:11:35.043Z,13.23
2022-10-09T19:14:37.115Z,13.44
2022-10-09T19:17:39.829Z,13.37
2022-10-09T19:20:41.878Z,13.19
2022-10-09T19:23:44.067Z,12.97
2022-10-09T19:26:46.110Z,13.15
2022-10-09T19:29:48.142Z,13.38
2022-10-09T19:32:50.406Z,13.12
2022-10-09T19:35:54.566Z,13.09
2022-10-09T19:38:56.622Z,13.17
2022-10-09T19:41:58.726Z,12.92
2022-10-09T19:45:00.908Z,12.79
2022-10-09T19:48:03.251Z,12.86
2022-10-09T19:51:09.197Z,12.43
2022-10-09T19:54:11.959Z,12.29
2022-10-09T19:57:14.052Z,12.14
2022-10-09T20:00:16.183Z,12.35
2022-10-09T20:03:18.235Z,12.26
2022-10-09T20:06:20.295Z,12.01
2022-10-09T20:09:22.411Z,12.01
2022-10-09T20:12:25.202Z,12.13
2022-10-09T20:15:27.284Z,12.04
2022-10-09T20:18:29.963Z,11.96
2022-10-09T20:21:32.782Z,12.09
2022-10-09T20:24:34.818Z,11.92
2022-10-09T20:27:36.845Z,11.88
2022-10-09T20:30:38.887Z,11.89
2022-10-09T20:33:41.211Z,11.78
2022-10-09T20:36:43.279Z,11.81
2022-10-09T20:39:45.401Z,11.84
2022-10-09T20:42:47.684Z,11.79
2022-10-09T20:45:49.994Z,11.91
2022-10-09T20:48:52.723Z,11.70
2022-10-09T20:51:56.720Z,11.94
2022-10-09T20:54:58.799Z,11.84
2022-10-09T20:58:01.631Z,11.73
2022-10-09T21:01:08.169Z,12.02
2022-10-09T21:04:11.654Z,11.72
2022-10-09T21:07:13.759Z,11.69
2022-10-09T21:10:15.983Z,11.63
2022-10-09T21:13:18.054Z,11.58
2022-10-09T21:16:22.711Z,11.76
2022-10-09T21:19:24.846Z,11.53
2022-10-09T21:22:27.036Z,11.58
2022-10-09T21:25:29.126Z,11.58
2022-10-09T21:28:31.271Z,11.70
2022-10-09T21:31:33.533Z,11.70
2022-10-09T21:34:36.578Z,11.71
2022-10-09T21:37:38.656Z,11.86
2022-10-09T21:40:41.470Z,11.55
2022-10-09T21:43:43.675Z,11.63
2022-10-09T21:46:45.726Z,11.76
2022-10-09T21:49:47.812Z,11.67
2022-10-09T21:52:50.217Z,11.71
2022-10-09T21:55:52.446Z,11.96
2022-10-09T21:58:54.500Z,12.20
2022-10-09T22:01:56.623Z,12.23
2022-10-09T22:04:58.841Z,12.33
2022-10-09T22:08:00.911Z,11.77
2022-10-09T22:11:06.911Z,12.10
2022-10-09T22:14:09.021Z,12.04
2022-10-09T22:17:11.143Z,11.95
2022-10-09T22:20:13.213Z,12.26
2022-10-09T22:23:16.274Z,12.18
2022-10-09T22:26:21.032Z,11.98
2022-10-09T22:29:24.416Z,12.11
2022-10-09T22:32:26.503Z,11.75
2022-10-09T22:35:28.672Z,11.86
2022-10-09T22:38:31.123Z,11.61
2022-10-09T22:41:34.336Z,11.68
2022-10-09T22:44:36.411Z,11.70
2022-10-09T22:47:38.462Z,11.86
2022-10-09T22:50:40.503Z,11.86
2022-10-09T22:53:42.926Z,11.93
2022-10-09T22:56:45.513Z,11.09
2022-10-09T22:59:47.644Z,9.97
2022-10-09T23:02:49.859Z,9.68
2022-10-09T23:05:52.098Z,9.56
2022-10-09T23:08:54.161Z,8.99
2022-10-09T23:11:56.977Z,8.34
2022-10-09T23:14:59.039Z,8.11
2022-10-09T23:18:01.070Z,7.92
2022-10-09T23:21:09.216Z,7.96
2022-10-09T23:24:15.447Z,7.99
2022-10-09T23:27:17.507Z,7.92
2022-10-09T23:30:19.567Z,8.12
2022-10-09T23:33:21.676Z,7.96
2022-10-09T23:36:25.475Z,7.92
2022-10-09T23:39:27.549Z,8.09
2022-10-09T23:42:29.756Z,8.19
2022-10-09T23:45:31.822Z,8.24
2022-10-09T23:48:34.018Z,8.33
2022-10-09T23:51:36.107Z,8.34
2022-10-09T23:54:38.156Z,8.32
2022-10-09T23:57:40.188Z,8.30
